createdAt,value
2019-05-30T00:01:04.681Z,1.20
2019-05-30T00:03:31.519Z,0.87
2019-05-30T00:05:58.465Z,0.90
2019-05-30T00:08:25.531Z,1.17
2019-05-30T00:10:52.897Z,2.20
2019-05-30T00:13:19.989Z,3.67
2019-05-30T00:15:47.378Z,1.00
2019-05-30T00:18:14.727Z,0.83
2019-05-30T00:20:42.087Z,1.67
2019-05-30T00:23:09.311Z,1.63
2019-05-30T00:25:36.349Z,1.20
2019-05-30T00:28:05.189Z,1.20
2019-05-30T00:30:32.170Z,1.20
2019-05-30T00:33:00.662Z,2.23
2019-05-30T00:35:27.900Z,1.10
2019-05-30T00:37:55.641Z,1.57
2019-05-30T00:40:22.499Z,1.07
2019-05-30T00:42:49.303Z,4.20
2019-05-30T00:45:20.858Z,2.10
2019-05-30T00:47:44.875Z,1.40
2019-05-30T00:50:11.686Z,1.20
2019-05-30T00:52:38.479Z,6.73
2019-05-30T00:55:05.315Z,3.03
2019-05-30T00:57:32.123Z,1.77
2019-05-30T00:59:58.899Z,1.30
2019-05-30T01:02:25.709Z,2.10
2019-05-30T01:04:52.731Z,1.33
2019-05-30T01:07:39.176Z,0.80
2019-05-30T01:10:25.862Z,1.43
2019-05-30T01:13:12.875Z,1.27
2019-05-30T01:15:59.588Z,1.17
2019-05-30T01:18:46.369Z,2.30
2019-05-30T01:21:32.822Z,1.70
2019-05-30T01:24:19.544Z,2.60
2019-05-30T01:27:07.636Z,1.03
2019-05-30T01:29:55.059Z,1.20
2019-05-30T01:32:41.797Z,1.53
2019-05-30T01:35:28.356Z,1.23
2019-05-30T01:38:15.098Z,0.83
2019-05-30T01:41:02.490Z,1.20
2019-05-30T01:43:31.098Z,1.97
2019-05-30T01:46:17.685Z,0.80
2019-05-30T01:48:44.653Z,1.37
2019-05-30T01:51:31.192Z,1.60
2019-05-30T01:53:58.370Z,2.10
2019-05-30T01:56:44.900Z,2.30
2019-05-30T01:59:11.792Z,2.10
2019-05-30T02:01:38.904Z,1.00
2019-05-30T02:04:25.541Z,1.53
2019-05-30T02:06:52.921Z,4.30
2019-05-30T02:09:39.935Z,1.00
2019-05-30T02:12:26.661Z,1.10
2019-05-30T02:14:53.896Z,1.53
2019-05-30T02:17:40.583Z,0.97
2019-05-30T02:20:27.448Z,3.73
2019-05-30T02:22:54.598Z,1.07
2019-05-30T02:25:41.060Z,1.30
2019-05-30T02:28:08.403Z,1.67
2019-05-30T02:30:35.505Z,1.00
2019-05-30T02:33:02.941Z,0.97
2019-05-30T02:35:49.861Z,1.37
2019-05-30T02:38:36.671Z,5.07
2019-05-30T02:41:23.416Z,1.13
2019-05-30T02:44:12.164Z,0.90
2019-05-30T02:46:38.616Z,1.20
2019-05-30T02:49:07.228Z,1.00
2019-05-30T02:51:34.201Z,0.90
2019-05-30T02:54:01.626Z,1.47
2019-05-30T02:56:29.840Z,1.23
2019-05-30T02:58:56.644Z,1.73
2019-05-30T03:02:00.076Z,2.70
2019-05-30T03:04:31.703Z,1.50
2019-05-30T03:06:58.534Z,1.10
2019-05-30T03:09:45.189Z,1.03
2019-05-30T03:12:13.498Z,1.00
2019-05-30T03:14:41.568Z,1.03
2019-05-30T03:17:28.528Z,3.67
2019-05-30T03:19:55.632Z,1.20
2019-05-30T03:22:42.101Z,3.20
2019-05-30T03:25:28.666Z,5.60
2019-05-30T03:28:15.391Z,5.23
2019-05-30T03:31:05.886Z,0.93
2019-05-30T03:33:40.636Z,1.30
2019-05-30T03:36:23.954Z,1.10
2019-05-30T03:38:42.165Z,1.20
2019-05-30T03:41:29.003Z,1.07
2019-05-30T03:44:15.874Z,1.20
2019-05-30T03:47:07.931Z,1.13
2019-05-30T03:49:54.952Z,0.93
2019-05-30T03:52:22.142Z,1.57
2019-05-30T03:54:48.916Z,1.20
2019-05-30T03:57:38.763Z,1.57
2019-05-30T04:00:09.440Z,1.30
2019-05-30T04:02:59.722Z,1.00
2019-05-30T04:05:48.597Z,1.90
2019-05-30T04:08:16.215Z,1.70
2019-05-30T04:11:03.768Z,1.83
2019-05-30T04:13:50.896Z,1.37
2019-05-30T04:16:19.481Z,1.40
2019-05-30T04:18:46.414Z,1.00
2019-05-30T04:21:32.852Z,1.40
2019-05-30T04:24:00.049Z,4.13
2019-05-30T04:26:46.789Z,1.20
2019-05-30T04:29:15.027Z,1.73
2019-05-30T04:31:42.903Z,2.60
2019-05-30T04:34:29.744Z,1.20
2019-05-30T04:36:56.892Z,1.40
2019-05-30T04:39:24.067Z,1.13
2019-05-30T04:41:51.390Z,1.40
2019-05-30T04:44:20.160Z,1.47
2019-05-30T04:47:07.044Z,1.30
2019-05-30T04:49:34.134Z,2.20
2019-05-30T04:52:01.393Z,4.03
2019-05-30T04:54:47.826Z,1.40
2019-05-30T04:57:15.026Z,1.53
2019-05-30T04:59:43.473Z,1.67
2019-05-30T05:02:29.902Z,2.13
2019-05-30T05:05:22.550Z,1.83
2019-05-30T05:07:45.138Z,3.73
2019-05-30T05:10:12.137Z,1.40
2019-05-30T05:12:39.343Z,1.43
2019-05-30T05:15:26.101Z,2.00
2019-05-30T05:17:53.574Z,1.80
2019-05-30T05:20:21.409Z,1.37
2019-05-30T05:23:09.355Z,1.60
2019-05-30T05:26:00.790Z,1.27
2019-05-30T05:31:20.383Z,1.43
2019-05-30T05:34:06.964Z,2.20
2019-05-30T05:36:53.405Z,1.60
2019-05-30T05:39:33.456Z,1.73
2019-05-30T05:42:12.869Z,3.07
2019-05-30T05:44:52.283Z,1.27
2019-05-30T05:47:32.452Z,1.53
2019-05-30T05:50:12.712Z,1.67
2019-05-30T05:52:52.868Z,1.50
2019-05-30T05:55:33.265Z,3.07
2019-05-30T05:58:13.449Z,1.27
2019-05-30T06:00:52.992Z,1.30
2019-05-30T06:03:33.246Z,2.07
2019-05-30T06:06:13.192Z,3.90
2019-05-30T06:08:53.061Z,1.30
2019-05-30T06:11:32.278Z,1.57
2019-05-30T06:14:11.756Z,2.30
2019-05-30T06:16:55.085Z,1.23
2019-05-30T06:19:45.887Z,1.80
2019-05-30T06:22:15.408Z,4.73
2019-05-30T06:24:55.497Z,2.50
2019-05-30T06:27:35.650Z,1.57
2019-05-30T06:30:15.128Z,2.70
2019-05-30T06:32:55.244Z,1.33
2019-05-30T06:38:11.496Z,1.80
2019-05-30T06:40:58.023Z,1.40
2019-05-30T06:43:44.477Z,1.40
2019-05-30T06:46:31.176Z,1.60
2019-05-30T06:49:18.099Z,2.07
2019-05-30T06:52:04.526Z,1.60
2019-05-30T06:54:31.553Z,1.33
2019-05-30T06:59:52.495Z,2.30
2019-05-30T07:02:39.435Z,1.97
2019-05-30T07:05:28.364Z,1.47
2019-05-30T07:10:50.351Z,1.60
2019-05-30T07:13:31.623Z,1.73
2019-05-30T07:16:11.765Z,2.50
2019-05-30T07:18:51.264Z,1.90
2019-05-30T07:21:18.095Z,1.60
2019-05-30T07:23:44.878Z,1.90
2019-05-30T07:26:31.906Z,1.60
2019-05-30T07:29:18.509Z,3.67
2019-05-30T07:32:05.080Z,3.23
2019-05-30T07:35:05.609Z,1.63
2019-05-30T07:37:40.348Z,2.80
2019-05-30T07:40:20.387Z,1.60
2019-05-30T07:43:00.371Z,1.80
2019-05-30T07:45:39.834Z,2.30
2019-05-30T07:48:19.412Z,1.97
2019-05-30T07:50:59.215Z,2.10
2019-05-30T07:53:39.903Z,1.60
2019-05-30T07:56:19.489Z,1.73
2019-05-30T07:58:59.196Z,2.60
2019-05-30T08:01:39.589Z,2.60
2019-05-30T08:04:19.339Z,1.90
2019-05-30T08:06:58.722Z,1.73
2019-05-30T08:09:26.828Z,2.30
2019-05-30T08:11:55.004Z,7.33
2019-05-30T08:14:41.705Z,1.90
2019-05-30T08:17:29.503Z,7.70
2019-05-30T08:19:56.474Z,2.03
2019-05-30T08:22:43.454Z,2.03
2019-05-30T08:25:10.718Z,2.93
2019-05-30T08:27:57.443Z,2.07
2019-05-30T08:30:44.027Z,1.70
2019-05-30T08:33:31.407Z,2.07
2019-05-30T08:35:59.075Z,2.00
2019-05-30T08:38:39.465Z,5.73
2019-05-30T08:41:06.429Z,3.93
2019-05-30T08:43:33.415Z,1.80
2019-05-30T08:46:20.278Z,2.07
2019-05-30T08:48:47.088Z,1.93
2019-05-30T08:51:14.526Z,1.77
2019-05-30T08:53:41.346Z,2.00
2019-05-30T08:56:08.409Z,2.10
2019-05-30T08:58:54.993Z,3.87
2019-05-30T09:01:21.795Z,2.10
2019-05-30T09:04:08.280Z,1.87
2019-05-30T09:06:35.796Z,1.80
2019-05-30T09:11:40.436Z,2.13
2019-05-30T09:14:08.148Z,2.60
2019-05-30T09:16:35.480Z,1.87
2019-05-30T09:19:02.382Z,1.80
2019-05-30T09:21:29.551Z,1.87
2019-05-30T09:24:01.144Z,2.40
2019-05-30T09:26:25.839Z,2.57
2019-05-30T09:29:12.296Z,1.90
2019-05-30T09:31:59.060Z,2.30
2019-05-30T09:34:46.967Z,2.80
2019-05-30T09:37:13.928Z,3.10
2019-05-30T09:39:41.529Z,2.37
2019-05-30T09:42:08.820Z,1.97
2019-05-30T09:44:35.607Z,2.70
2019-05-30T09:47:22.065Z,2.03
2019-05-30T09:49:49.196Z,2.50
2019-05-30T09:52:16.255Z,1.90
2019-05-30T09:55:03.067Z,3.63
2019-05-30T09:57:30.300Z,2.10
2019-05-30T10:00:17.402Z,1.97
2019-05-30T10:03:03.879Z,2.20
2019-05-30T10:05:50.554Z,1.73
2019-05-30T10:08:17.996Z,3.03
2019-05-30T10:11:04.464Z,3.20
2019-05-30T10:13:31.546Z,5.13
2019-05-30T10:16:18.308Z,1.97
2019-05-30T10:18:46.130Z,2.20
2019-05-30T10:21:34.351Z,2.00
2019-05-30T10:24:01.684Z,1.70
2019-05-30T10:26:48.985Z,2.83
2019-05-30T10:29:36.187Z,1.80
2019-05-30T10:34:51.965Z,1.70
2019-05-30T10:37:18.935Z,2.00
2019-05-30T10:39:47.317Z,3.47
2019-05-30T10:42:34.167Z,2.00
2019-05-30T10:45:21.015Z,1.80
2019-05-30T10:47:49.306Z,2.20
2019-05-30T10:50:36.039Z,1.83
2019-05-30T10:53:02.931Z,2.50
2019-05-30T10:55:29.706Z,2.20
2019-05-30T10:57:59.379Z,1.90
2019-05-30T11:01:00.309Z,2.10
2019-05-30T11:03:47.599Z,2.00
2019-05-30T11:07:11.326Z,2.30
2019-05-30T11:09:57.431Z,2.20
2019-05-30T11:12:24.597Z,1.83
2019-05-30T11:14:51.542Z,2.70
2019-05-30T11:17:38.592Z,3.07
2019-05-30T11:20:05.384Z,2.07
2019-05-30T11:22:32.487Z,2.40
2019-05-30T11:24:59.729Z,2.10
2019-05-30T11:27:26.871Z,1.70
2019-05-30T11:30:13.586Z,2.10
2019-05-30T11:32:40.665Z,2.00
2019-05-30T11:35:27.169Z,2.33
2019-05-30T11:37:55.153Z,2.30
2019-05-30T11:40:35.452Z,2.20
2019-05-30T11:43:14.717Z,2.17
2019-05-30T11:45:41.627Z,2.20
2019-05-30T11:48:08.448Z,2.40
2019-05-30T11:50:35.363Z,2.20
2019-05-30T11:53:22.071Z,1.93
2019-05-30T11:55:50.148Z,2.00
2019-05-30T11:58:19.561Z,2.30
2019-05-30T12:00:46.721Z,4.07
2019-05-30T12:03:33.186Z,2.30
2019-05-30T12:06:20.298Z,2.23
2019-05-30T12:08:47.111Z,2.27
2019-05-30T12:11:33.590Z,4.60
2019-05-30T12:14:21.505Z,2.57
2019-05-30T12:17:08.244Z,2.00
2019-05-30T12:19:35.556Z,2.30
2019-05-30T12:22:02.655Z,2.30
2019-05-30T12:24:49.505Z,2.27
2019-05-30T12:27:17.156Z,2.13
2019-05-30T12:29:43.979Z,2.20
2019-05-30T12:35:00.415Z,3.17
2019-05-30T12:37:27.959Z,2.27
2019-05-30T12:40:07.670Z,2.40
2019-05-30T12:42:47.061Z,2.40
2019-05-30T12:45:14.612Z,2.40
2019-05-30T12:48:01.449Z,2.43
2019-05-30T12:50:48.195Z,2.60
2019-05-30T12:53:15.096Z,2.60
2019-05-30T12:55:42.247Z,2.90
2019-05-30T12:58:28.700Z,2.53
2019-05-30T13:00:56.652Z,2.40
2019-05-30T13:03:24.922Z,2.33
2019-05-30T13:06:11.517Z,2.23
2019-05-30T13:08:59.045Z,2.53
2019-05-30T13:11:45.612Z,2.30
2019-05-30T13:14:12.554Z,2.53
2019-05-30T13:16:39.708Z,2.70
2019-05-30T13:19:26.371Z,2.80
2019-05-30T13:22:12.965Z,2.10
2019-05-30T13:24:39.759Z,3.43
2019-05-30T13:27:06.631Z,2.33
2019-05-30T13:29:53.214Z,3.03
2019-05-30T13:32:20.112Z,2.70
2019-05-30T13:34:47.064Z,1.87
2019-05-30T13:37:13.842Z,2.63
2019-05-30T13:39:41.176Z,2.57
2019-05-30T13:48:35.791Z,2.40
2019-05-30T13:51:15.836Z,2.43
2019-05-30T13:53:55.828Z,2.70
2019-05-30T13:56:35.127Z,2.93
2019-05-30T13:59:15.311Z,2.33
2019-05-30T14:01:55.327Z,3.87
2019-05-30T14:04:34.856Z,3.13
2019-05-30T14:07:15.011Z,2.97
2019-05-30T14:09:55.411Z,3.00
2019-05-30T14:12:35.426Z,2.50
2019-05-30T14:15:15.622Z,2.70
2019-05-30T14:17:58.701Z,2.87
2019-05-30T14:20:38.064Z,4.00
2019-05-30T14:23:18.193Z,2.57
2019-05-30T14:25:58.628Z,2.60
2019-05-30T14:28:38.473Z,5.33
2019-05-30T14:31:18.656Z,2.47
2019-05-30T14:33:58.168Z,2.50
2019-05-30T14:36:38.098Z,2.87
2019-05-30T14:39:17.337Z,3.03
2019-05-30T14:41:56.631Z,3.10
2019-05-30T14:44:35.811Z,2.50
2019-05-30T14:47:15.118Z,2.57
2019-05-30T14:49:54.587Z,5.03
2019-05-30T14:52:34.876Z,2.67
2019-05-30T14:55:15.039Z,2.70
2019-05-30T14:57:58.047Z,3.53
2019-05-30T15:00:36.426Z,3.07
2019-05-30T15:03:16.066Z,2.87
2019-05-30T15:05:55.771Z,2.50
2019-05-30T15:08:35.744Z,3.40
2019-05-30T15:11:15.785Z,2.60
2019-05-30T15:13:42.713Z,3.03
2019-05-30T15:16:29.151Z,2.67
2019-05-30T15:19:16.534Z,3.40
2019-05-30T15:22:03.112Z,5.93
2019-05-30T15:24:49.676Z,2.87
2019-05-30T15:27:36.199Z,2.90
2019-05-30T15:30:22.745Z,3.03
2019-05-30T15:33:02.359Z,2.90
2019-05-30T15:35:42.004Z,2.60
2019-05-30T15:38:21.874Z,3.30
2019-05-30T15:40:49.134Z,3.03
2019-05-30T15:43:35.855Z,3.20
2019-05-30T15:46:22.667Z,3.37
2019-05-30T15:49:10.196Z,3.20
2019-05-30T15:51:57.011Z,2.97
2019-05-30T15:54:43.468Z,3.30
2019-05-30T15:57:30.476Z,2.90
2019-05-30T16:00:18.052Z,2.80
2019-05-30T16:03:05.810Z,3.33
2019-05-30T16:05:52.782Z,3.27
2019-05-30T16:08:39.487Z,3.53
2019-05-30T16:11:25.928Z,2.87
2019-05-30T16:14:13.258Z,3.50
2019-05-30T16:16:40.691Z,3.10
2019-05-30T16:19:17.427Z,3.10
2019-05-30T16:21:57.338Z,2.77
2019-05-30T16:24:24.225Z,3.00
2019-05-30T16:27:11.468Z,3.67
2019-05-30T16:29:38.647Z,3.30
2019-05-30T16:32:05.969Z,3.10
2019-05-30T16:34:45.198Z,3.30
2019-05-30T16:37:12.454Z,5.80
2019-05-30T16:40:06.165Z,3.00
2019-05-30T16:42:28.040Z,3.20
2019-05-30T16:44:54.919Z,3.53
2019-05-30T16:47:41.373Z,2.90
2019-05-30T16:50:08.699Z,3.13
2019-05-30T16:52:35.560Z,3.30
2019-05-30T16:55:23.332Z,3.20
2019-05-30T16:57:50.372Z,3.23
2019-05-30T17:00:17.659Z,3.23
2019-05-30T17:02:45.030Z,3.00
2019-05-30T17:05:32.347Z,2.73
2019-05-30T17:08:20.101Z,3.40
2019-05-30T17:10:47.039Z,3.07
2019-05-30T17:13:33.522Z,3.40
2019-05-30T17:16:00.373Z,3.10
2019-05-30T17:18:27.508Z,3.17
2019-05-30T17:21:14.028Z,2.83
2019-05-30T17:23:40.951Z,3.30
2019-05-30T17:26:27.511Z,3.43
2019-05-30T17:28:54.912Z,2.83
2019-05-30T17:31:41.481Z,3.53
2019-05-30T17:34:08.948Z,3.53
2019-05-30T17:36:55.868Z,3.80
2019-05-30T17:39:22.934Z,3.67
2019-05-30T17:41:50.796Z,3.23
2019-05-30T17:44:37.269Z,3.83
2019-05-30T17:47:05.169Z,4.73
2019-05-30T17:49:52.396Z,3.67
2019-05-30T17:52:38.868Z,4.40
2019-05-30T17:55:26.095Z,3.23
2019-05-30T17:57:53.232Z,3.43
2019-05-30T18:00:39.663Z,3.50
2019-05-30T18:03:26.438Z,3.00
2019-05-30T18:06:13.196Z,3.33
2019-05-30T18:08:40.229Z,3.63
2019-05-30T18:11:07.062Z,3.57
2019-05-30T18:13:53.487Z,3.80
2019-05-30T18:16:40.240Z,3.97
2019-05-30T18:19:27.373Z,3.33
2019-05-30T18:21:54.339Z,4.23
2019-05-30T18:24:41.080Z,4.40
2019-05-30T18:27:07.896Z,3.70
2019-05-30T18:29:34.705Z,3.70
2019-05-30T18:32:01.620Z,3.50
2019-05-30T18:34:28.489Z,3.70
2019-05-30T18:36:55.531Z,4.50
2019-05-30T18:39:42.369Z,3.90
2019-05-30T18:42:09.738Z,3.87
2019-05-30T18:44:36.825Z,3.70
2019-05-30T18:47:23.555Z,5.13
2019-05-30T18:50:10.149Z,5.90
2019-05-30T18:52:37.298Z,4.60
2019-05-30T18:55:05.464Z,5.03
2019-05-30T18:57:32.913Z,4.00
2019-05-30T19:00:00.101Z,4.33
2019-05-30T19:02:46.604Z,4.63
2019-05-30T19:05:13.563Z,5.47
2019-05-30T19:07:40.371Z,4.60
2019-05-30T19:10:07.149Z,5.17
2019-05-30T19:12:34.322Z,5.23
2019-05-30T19:15:01.294Z,6.37
2019-05-30T19:17:48.088Z,5.60
2019-05-30T19:20:35.820Z,4.30
2019-05-30T19:23:22.392Z,5.50
2019-05-30T19:26:09.373Z,6.00
2019-05-30T19:28:37.064Z,5.60
2019-05-30T19:31:23.792Z,4.27
2019-05-30T19:33:51.036Z,4.30
2019-05-30T19:36:18.099Z,8.13
2019-05-30T19:38:45.419Z,5.50
2019-05-30T19:41:47.859Z,7.10
2019-05-30T19:44:01.223Z,7.93
2019-05-30T19:46:28.299Z,7.70
2019-05-30T19:49:14.799Z,5.50
2019-05-30T19:52:01.364Z,9.73
2019-05-30T19:54:28.914Z,6.37
2019-05-30T19:56:56.887Z,5.07
2019-05-30T19:59:23.664Z,5.10
2019-05-30T20:01:50.613Z,8.70
2019-05-30T20:04:38.294Z,5.80
2019-05-30T20:07:06.455Z,8.73
2019-05-30T20:10:01.509Z,7.20
2019-05-30T20:12:21.668Z,6.40
2019-05-30T20:15:08.258Z,9.83
2019-05-30T20:17:54.812Z,5.70
2019-05-30T20:20:21.893Z,5.60
2019-05-30T20:22:48.751Z,9.73
2019-05-30T20:25:39.830Z,6.03
2019-05-30T20:28:05.059Z,7.33
2019-05-30T20:30:51.591Z,9.10
2019-05-30T20:33:18.523Z,5.47
2019-05-30T20:35:46.886Z,7.77
2019-05-30T20:38:14.633Z,7.87
2019-05-30T20:41:01.603Z,6.83
2019-05-30T20:43:48.178Z,8.27
2019-05-30T20:46:23.170Z,8.60
2019-05-30T20:48:45.049Z,9.47
2019-05-30T20:51:20.843Z,7.33
2019-05-30T20:53:41.219Z,9.00
2019-05-30T20:56:08.674Z,6.97
2019-05-30T20:58:35.762Z,5.80
2019-05-30T21:01:02.900Z,9.17
2019-05-30T21:03:30.168Z,8.13
2019-05-30T21:05:57.313Z,10.60
2019-05-30T21:08:44.327Z,11.50
2019-05-30T21:11:11.537Z,11.67
2019-05-30T21:13:38.453Z,8.77
2019-05-30T21:16:05.527Z,10.90
2019-05-30T21:18:52.280Z,9.60
2019-05-30T21:21:19.191Z,10.20
2019-05-30T21:24:05.928Z,10.40
2019-05-30T21:26:52.401Z,8.40
2019-05-30T21:29:19.182Z,10.30
2019-05-30T21:31:47.383Z,10.67
2019-05-30T21:34:15.059Z,10.77
2019-05-30T21:39:50.862Z,9.50
2019-05-30T21:42:17.937Z,12.83
2019-05-30T21:44:49.747Z,9.03
2019-05-30T21:47:14.219Z,9.17
2019-05-30T21:50:00.659Z,7.90
2019-05-30T21:52:48.013Z,10.33
2019-05-30T21:55:16.560Z,9.87
2019-05-30T21:58:02.999Z,12.50
2019-05-30T22:01:09.117Z,8.57
2019-05-30T22:03:55.644Z,9.17
2019-05-30T22:06:42.845Z,9.13
2019-05-30T22:09:10.308Z,8.77
2019-05-30T22:11:37.763Z,6.90
2019-05-30T22:14:24.212Z,10.50
2019-05-30T22:16:52.201Z,12.70
2019-05-30T22:19:39.441Z,8.73
2019-05-30T22:22:11.215Z,9.33
2019-05-30T22:24:38.067Z,11.63
2019-05-30T22:27:05.018Z,11.27
2019-05-30T22:29:31.774Z,10.87
2019-05-30T22:31:58.599Z,9.20
2019-05-30T22:34:25.545Z,9.90
2019-05-30T22:37:04.918Z,11.10
2019-05-30T22:39:44.836Z,10.90
2019-05-30T22:42:11.829Z,8.20
2019-05-30T22:44:38.732Z,11.57
2019-05-30T22:47:25.383Z,10.93
2019-05-30T22:49:52.937Z,9.60
2019-05-30T22:52:19.927Z,8.30
2019-05-30T22:54:47.143Z,10.57
2019-05-30T22:57:33.839Z,10.70
2019-05-30T23:00:00.679Z,13.77
2019-05-30T23:02:47.832Z,11.70
2019-05-30T23:05:34.829Z,11.40
2019-05-30T23:08:21.908Z,9.73
2019-05-30T23:10:49.643Z,16.27
2019-05-30T23:13:40.495Z,9.97
2019-05-30T23:16:05.069Z,11.97
2019-05-30T23:18:31.880Z,10.50
2019-05-30T23:20:58.695Z,9.57
2019-05-30T23:23:25.632Z,7.93
2019-05-30T23:25:53.317Z,10.87
2019-05-30T23:28:40.877Z,10.20
2019-05-30T23:31:27.399Z,11.80
2019-05-30T23:34:14.100Z,9.87
2019-05-30T23:36:54.569Z,8.97
2019-05-30T23:39:34.517Z,9.57
2019-05-30T23:42:14.571Z,11.90
2019-05-30T23:44:55.423Z,8.13
2019-05-30T23:47:34.901Z,12.27
2019-05-30T23:50:01.983Z,11.93
2019-05-30T23:52:49.953Z,11.60
2019-05-30T23:55:38.718Z,9.23
2019-05-30T23:58:25.638Z,9.80
